sensor_id;sensor_type;location;lat;lon;timestamp;temperature;humidity
78463;SHT31;67756;51.982;5.648;2024-01-10T00:01:56;0.8;39.6
78463;SHT31;67756;51.982;5.648;2024-01-10T00:04:25;0.8;39.4
78463;SHT31;67756;51.982;5.648;2024-01-10T00:06:56;0.8;39.5
78463;SHT31;67756;51.982;5.648;2024-01-10T00:09:24;0.7;40.0
78463;SHT31;67756;51.982;5.648;2024-01-10T00:11:53;0.7;39.8
78463;SHT31;67756;51.982;5.648;2024-01-10T00:14:22;0.7;40.4
78463;SHT31;67756;51.982;5.648;2024-01-10T00:16:50;0.7;40.3
78463;SHT31;67756;51.982;5.648;2024-01-10T00:19:19;0.6;40.0
78463;SHT31;67756;51.982;5.648;2024-01-10T00:21:48;0.6;40.6
78463;SHT31;67756;51.982;5.648;2024-01-10T00:24:16;0.6;42.6
78463;SHT31;67756;51.982;5.648;2024-01-10T00:26:45;0.7;42.0
78463;SHT31;67756;51.982;5.648;2024-01-10T00:29:14;0.7;41.1
78463;SHT31;67756;51.982;5.648;2024-01-10T00:31:43;0.7;40.9
78463;SHT31;67756;51.982;5.648;2024-01-10T00:34:13;0.8;41.2
78463;SHT31;67756;51.982;5.648;2024-01-10T00:36:42;0.8;40.8
78463;SHT31;67756;51.982;5.648;2024-01-10T00:39:11;0.9;40.6
78463;SHT31;67756;51.982;5.648;2024-01-10T00:41:43;0.9;41.1
78463;SHT31;67756;51.982;5.648;2024-01-10T00:44:11;1.0;41.1
78463;SHT31;67756;51.982;5.648;2024-01-10T00:46:40;1.1;41.3
78463;SHT31;67756;51.982;5.648;2024-01-10T00:49:08;1.1;41.2
78463;SHT31;67756;51.982;5.648;2024-01-10T00:51:37;1.2;41.5
78463;SHT31;67756;51.982;5.648;2024-01-10T00:54:05;1.2;40.8
78463;SHT31;67756;51.982;5.648;2024-01-10T00:56:34;1.2;40.8
78463;SHT31;67756;51.982;5.648;2024-01-10T00:59:03;1.2;40.0
78463;SHT31;67756;51.982;5.648;2024-01-10T01:01:31;1.2;40.2
78463;SHT31;67756;51.982;5.648;2024-01-10T01:04:02;1.2;40.3
78463;SHT31;67756;51.982;5.648;2024-01-10T01:06:30;1.1;40.4
78463;SHT31;67756;51.982;5.648;2024-01-10T01:08:59;1.1;40.4
78463;SHT31;67756;51.982;5.648;2024-01-10T01:11:28;1.0;40.5
78463;SHT31;67756;51.982;5.648;2024-01-10T01:13:57;1.0;40.7
78463;SHT31;67756;51.982;5.648;2024-01-10T01:16:25;0.9;41.8
78463;SHT31;67756;51.982;5.648;2024-01-10T01:18:54;0.8;41.9
78463;SHT31;67756;51.982;5.648;2024-01-10T01:21:22;0.8;41.4
78463;SHT31;67756;51.982;5.648;2024-01-10T01:23:51;0.7;41.7
78463;SHT31;67756;51.982;5.648;2024-01-10T01:26:22;0.6;42.0
78463;SHT31;67756;51.982;5.648;2024-01-10T01:28:50;0.6;42.5
78463;SHT31;67756;51.982;5.648;2024-01-10T01:31:19;0.6;42.4
78463;SHT31;67756;51.982;5.648;2024-01-10T01:33:47;0.6;42.2
78463;SHT31;67756;51.982;5.648;2024-01-10T01:36:16;0.6;42.5
78463;SHT31;67756;51.982;5.648;2024-01-10T01:38:45;0.5;43.6
78463;SHT31;67756;51.982;5.648;2024-01-10T01:41:14;0.5;43.3
78463;SHT31;67756;51.982;5.648;2024-01-10T01:43:44;0.5;42.5
78463;SHT31;67756;51.982;5.648;2024-01-10T01:46:15;0.5;42.9
78463;SHT31;67756;51.982;5.648;2024-01-10T01:48:46;0.5;42.7
78463;SHT31;67756;51.982;5.648;2024-01-10T01:51:17;0.6;43.3
78463;SHT31;67756;51.982;5.648;2024-01-10T01:53:48;0.6;43.3
78463;SHT31;67756;51.982;5.648;2024-01-10T01:56:19;0.6;43.3
78463;SHT31;67756;51.982;5.648;2024-01-10T01:58:50;0.6;42.8
78463;SHT31;67756;51.982;5.648;2024-01-10T02:01:22;0.6;43.4
78463;SHT31;67756;51.982;5.648;2024-01-10T02:03:51;0.6;42.3
78463;SHT31;67756;51.982;5.648;2024-01-10T02:06:20;0.6;42.8
78463;SHT31;67756;51.982;5.648;2024-01-10T02:08:51;0.7;42.5
78463;SHT31;67756;51.982;5.648;2024-01-10T02:11:22;0.7;43.0
78463;SHT31;67756;51.982;5.648;2024-01-10T02:13:53;0.7;43.1
78463;SHT31;67756;51.982;5.648;2024-01-10T02:16:22;0.8;43.3
78463;SHT31;67756;51.982;5.648;2024-01-10T02:18:51;0.8;42.7
78463;SHT31;67756;51.982;5.648;2024-01-10T02:21:23;0.8;42.5
78463;SHT31;67756;51.982;5.648;2024-01-10T02:23:52;0.9;42.6
78463;SHT31;67756;51.982;5.648;2024-01-10T02:26:21;0.9;43.0
78463;SHT31;67756;51.982;5.648;2024-01-10T02:28:49;0.9;43.0
78463;SHT31;67756;51.982;5.648;2024-01-10T02:31:18;0.9;42.6
78463;SHT31;67756;51.982;5.648;2024-01-10T02:33:46;1.0;42.8
78463;SHT31;67756;51.982;5.648;2024-01-10T02:36:15;1.0;42.4
78463;SHT31;67756;51.982;5.648;2024-01-10T02:38:44;1.0;43.1
78463;SHT31;67756;51.982;5.648;2024-01-10T02:41:14;1.0;42.7
78463;SHT31;67756;51.982;5.648;2024-01-10T02:43:42;1.0;42.4
78463;SHT31;67756;51.982;5.648;2024-01-10T02:46:11;1.1;42.2
78463;SHT31;67756;51.982;5.648;2024-01-10T02:48:42;1.1;43.1
78463;SHT31;67756;51.982;5.648;2024-01-10T02:51:11;1.1;43.0
78463;SHT31;67756;51.982;5.648;2024-01-10T02:53:39;1.1;42.6
78463;SHT31;67756;51.982;5.648;2024-01-10T02:56:09;1.2;42.4
78463;SHT31;67756;51.982;5.648;2024-01-10T02:58:38;1.2;42.5
78463;SHT31;67756;51.982;5.648;2024-01-10T03:01:06;1.2;42.2
78463;SHT31;67756;51.982;5.648;2024-01-10T03:03:37;1.2;42.5
78463;SHT31;67756;51.982;5.648;2024-01-10T03:06:07;1.2;42.6
78463;SHT31;67756;51.982;5.648;2024-01-10T03:08:36;1.2;42.2
78463;SHT31;67756;51.982;5.648;2024-01-10T03:11:05;1.2;42.6
78463;SHT31;67756;51.982;5.648;2024-01-10T03:13:34;1.3;42.5
78463;SHT31;67756;51.982;5.648;2024-01-10T03:16:06;1.3;42.5
78463;SHT31;67756;51.982;5.648;2024-01-10T03:18:35;1.3;42.4
78463;SHT31;67756;51.982;5.648;2024-01-10T03:21:04;1.4;42.5
78463;SHT31;67756;51.982;5.648;2024-01-10T03:23:33;1.4;42.4
78463;SHT31;67756;51.982;5.648;2024-01-10T03:26:02;1.4;42.2
78463;SHT31;67756;51.982;5.648;2024-01-10T03:28:32;1.4;42.3
78463;SHT31;67756;51.982;5.648;2024-01-10T03:31:01;1.4;41.7
78463;SHT31;67756;51.982;5.648;2024-01-10T03:33:29;1.4;41.7
78463;SHT31;67756;51.982;5.648;2024-01-10T03:35:58;1.4;42.2
78463;SHT31;67756;51.982;5.648;2024-01-10T03:38:27;1.4;42.3
78463;SHT31;67756;51.982;5.648;2024-01-10T03:40:55;1.3;42.5
78463;SHT31;67756;51.982;5.648;2024-01-10T03:43:24;1.3;41.9
78463;SHT31;67756;51.982;5.648;2024-01-10T03:45:53;1.2;42.5
78463;SHT31;67756;51.982;5.648;2024-01-10T03:48:22;1.1;42.4
78463;SHT31;67756;51.982;5.648;2024-01-10T03:50:51;1.1;42.7
78463;SHT31;67756;51.982;5.648;2024-01-10T03:53:20;1.1;43.4
78463;SHT31;67756;51.982;5.648;2024-01-10T03:55:49;1.0;43.5
78463;SHT31;67756;51.982;5.648;2024-01-10T03:58:17;1.0;43.0
78463;SHT31;67756;51.982;5.648;2024-01-10T04:00:46;0.9;44.0
78463;SHT31;67756;51.982;5.648;2024-01-10T04:03:15;0.9;43.4
78463;SHT31;67756;51.982;5.648;2024-01-10T04:05:44;0.9;43.6
78463;SHT31;67756;51.982;5.648;2024-01-10T04:08:13;0.8;43.0
78463;SHT31;67756;51.982;5.648;2024-01-10T04:10:41;0.8;43.5
78463;SHT31;67756;51.982;5.648;2024-01-10T04:13:10;0.8;43.5
78463;SHT31;67756;51.982;5.648;2024-01-10T04:15:39;0.7;43.8
78463;SHT31;67756;51.982;5.648;2024-01-10T04:18:08;0.7;44.0
78463;SHT31;67756;51.982;5.648;2024-01-10T04:20:36;0.7;44.0
78463;SHT31;67756;51.982;5.648;2024-01-10T04:23:05;0.6;44.4
78463;SHT31;67756;51.982;5.648;2024-01-10T04:25:33;0.6;44.5
78463;SHT31;67756;51.982;5.648;2024-01-10T04:28:02;0.6;45.1
78463;SHT31;67756;51.982;5.648;2024-01-10T04:30:31;0.5;44.7
78463;SHT31;67756;51.982;5.648;2024-01-10T04:32:59;0.5;44.8
78463;SHT31;67756;51.982;5.648;2024-01-10T04:35:28;0.5;44.9
78463;SHT31;67756;51.982;5.648;2024-01-10T04:37:58;0.5;45.0
78463;SHT31;67756;51.982;5.648;2024-01-10T04:40:27;0.5;44.7
78463;SHT31;67756;51.982;5.648;2024-01-10T04:42:56;0.4;44.9
78463;SHT31;67756;51.982;5.648;2024-01-10T04:45:25;0.4;44.6
78463;SHT31;67756;51.982;5.648;2024-01-10T04:47:53;0.4;44.4
78463;SHT31;67756;51.982;5.648;2024-01-10T04:50:22;0.4;45.0
78463;SHT31;67756;51.982;5.648;2024-01-10T04:52:51;0.3;45.3
78463;SHT31;67756;51.982;5.648;2024-01-10T04:55:19;0.3;45.3
78463;SHT31;67756;51.982;5.648;2024-01-10T04:57:48;0.3;45.1
78463;SHT31;67756;51.982;5.648;2024-01-10T05:00:17;0.3;44.9
78463;SHT31;67756;51.982;5.648;2024-01-10T05:02:46;0.4;44.5
78463;SHT31;67756;51.982;5.648;2024-01-10T05:05:14;0.4;44.6
78463;SHT31;67756;51.982;5.648;2024-01-10T05:07:48;0.4;45.2
78463;SHT31;67756;51.982;5.648;2024-01-10T05:10:17;0.4;44.8
78463;SHT31;67756;51.982;5.648;2024-01-10T05:12:46;0.4;45.0
78463;SHT31;67756;51.982;5.648;2024-01-10T05:15:14;0.4;45.3
78463;SHT31;67756;51.982;5.648;2024-01-10T05:17:43;0.4;44.5
78463;SHT31;67756;51.982;5.648;2024-01-10T05:20:11;0.3;45.4
78463;SHT31;67756;51.982;5.648;2024-01-10T05:22:40;0.3;44.7
78463;SHT31;67756;51.982;5.648;2024-01-10T05:25:09;0.3;45.1
78463;SHT31;67756;51.982;5.648;2024-01-10T05:27:39;0.3;45.3
78463;SHT31;67756;51.982;5.648;2024-01-10T05:30:11;0.3;45.3
78463;SHT31;67756;51.982;5.648;2024-01-10T05:32:40;0.3;45.0
78463;SHT31;67756;51.982;5.648;2024-01-10T05:35:09;0.3;45.6
78463;SHT31;67756;51.982;5.648;2024-01-10T05:37:38;0.3;45.7
78463;SHT31;67756;51.982;5.648;2024-01-10T05:40:08;0.2;45.1
78463;SHT31;67756;51.982;5.648;2024-01-10T05:42:36;0.2;45.1
78463;SHT31;67756;51.982;5.648;2024-01-10T05:45:06;0.2;45.6
78463;SHT31;67756;51.982;5.648;2024-01-10T05:47:35;0.2;45.3
78463;SHT31;67756;51.982;5.648;2024-01-10T05:50:04;0.2;46.0
78463;SHT31;67756;51.982;5.648;2024-01-10T05:52:34;0.2;46.2
78463;SHT31;67756;51.982;5.648;2024-01-10T05:55:03;0.2;44.9
78463;SHT31;67756;51.982;5.648;2024-01-10T05:57:33;0.2;45.8
78463;SHT31;67756;51.982;5.648;2024-01-10T06:00:02;0.2;45.9
78463;SHT31;67756;51.982;5.648;2024-01-10T06:02:33;0.1;46.1
78463;SHT31;67756;51.982;5.648;2024-01-10T06:05:02;0.1;45.6
78463;SHT31;67756;51.982;5.648;2024-01-10T06:07:31;0.1;45.4
78463;SHT31;67756;51.982;5.648;2024-01-10T06:10:00;0.1;45.6
78463;SHT31;67756;51.982;5.648;2024-01-10T06:12:35;0.1;45.6
78463;SHT31;67756;51.982;5.648;2024-01-10T06:15:09;0.2;45.3
78463;SHT31;67756;51.982;5.648;2024-01-10T06:17:38;0.2;45.4
78463;SHT31;67756;51.982;5.648;2024-01-10T06:20:07;0.2;45.7
78463;SHT31;67756;51.982;5.648;2024-01-10T06:22:36;0.3;45.5
78463;SHT31;67756;51.982;5.648;2024-01-10T06:25:05;0.3;45.2
78463;SHT31;67756;51.982;5.648;2024-01-10T06:27:34;0.3;45.0
78463;SHT31;67756;51.982;5.648;2024-01-10T06:30:04;0.2;45.2
78463;SHT31;67756;51.982;5.648;2024-01-10T06:32:33;0.2;45.0
78463;SHT31;67756;51.982;5.648;2024-01-10T06:35:02;0.2;45.2
78463;SHT31;67756;51.982;5.648;2024-01-10T06:37:32;0.2;45.0
78463;SHT31;67756;51.982;5.648;2024-01-10T06:40:00;0.2;45.6
78463;SHT31;67756;51.982;5.648;2024-01-10T06:42:30;0.1;45.6
78463;SHT31;67756;51.982;5.648;2024-01-10T06:44:59;0.1;45.6
78463;SHT31;67756;51.982;5.648;2024-01-10T06:47:28;0.1;45.5
78463;SHT31;67756;51.982;5.648;2024-01-10T06:49:57;0.1;45.5
78463;SHT31;67756;51.982;5.648;2024-01-10T06:52:27;0.1;46.0
78463;SHT31;67756;51.982;5.648;2024-01-10T06:54:56;0.1;45.2
78463;SHT31;67756;51.982;5.648;2024-01-10T06:57:25;0.1;46.0
78463;SHT31;67756;51.982;5.648;2024-01-10T06:59:56;0.0;45.2
78463;SHT31;67756;51.982;5.648;2024-01-10T07:02:27;0.0;45.3
78463;SHT31;67756;51.982;5.648;2024-01-10T07:04:56;0.0;45.9
78463;SHT31;67756;51.982;5.648;2024-01-10T07:07:24;0.0;45.6
78463;SHT31;67756;51.982;5.648;2024-01-10T07:09:53;-0.0;45.6
78463;SHT31;67756;51.982;5.648;2024-01-10T07:12:21;-0.0;45.9
78463;SHT31;67756;51.982;5.648;2024-01-10T07:14:50;-0.0;46.1
78463;SHT31;67756;51.982;5.648;2024-01-10T07:17:19;0.0;45.8
78463;SHT31;67756;51.982;5.648;2024-01-10T07:19:49;0.0;45.7
78463;SHT31;67756;51.982;5.648;2024-01-10T07:22:18;0.1;45.7
78463;SHT31;67756;51.982;5.648;2024-01-10T07:24:46;0.1;45.5
78463;SHT31;67756;51.982;5.648;2024-01-10T07:27:15;0.1;45.6
78463;SHT31;67756;51.982;5.648;2024-01-10T07:29:45;0.1;45.5
78463;SHT31;67756;51.982;5.648;2024-01-10T07:32:14;0.1;46.1
78463;SHT31;67756;51.982;5.648;2024-01-10T07:34:43;0.1;45.1
78463;SHT31;67756;51.982;5.648;2024-01-10T07:37:13;0.2;45.9
78463;SHT31;67756;51.982;5.648;2024-01-10T07:39:45;0.2;45.5
78463;SHT31;67756;51.982;5.648;2024-01-10T07:42:15;0.2;45.5
78463;SHT31;67756;51.982;5.648;2024-01-10T07:44:44;0.2;45.3
78463;SHT31;67756;51.982;5.648;2024-01-10T07:47:13;0.2;45.2
78463;SHT31;67756;51.982;5.648;2024-01-10T07:49:41;0.2;45.2
78463;SHT31;67756;51.982;5.648;2024-01-10T07:52:10;0.2;45.0
78463;SHT31;67756;51.982;5.648;2024-01-10T07:54:39;0.2;45.7
78463;SHT31;67756;51.982;5.648;2024-01-10T07:57:08;0.2;45.5
78463;SHT31;67756;51.982;5.648;2024-01-10T07:59:38;0.2;45.3
78463;SHT31;67756;51.982;5.648;2024-01-10T08:02:09;0.2;45.3
78463;SHT31;67756;51.982;5.648;2024-01-10T08:04:38;0.2;45.5
78463;SHT31;67756;51.982;5.648;2024-01-10T08:07:09;0.3;45.5
78463;SHT31;67756;51.982;5.648;2024-01-10T08:09:38;0.4;45.5
78463;SHT31;67756;51.982;5.648;2024-01-10T08:12:07;0.4;45.5
78463;SHT31;67756;51.982;5.648;2024-01-10T08:14:37;0.5;44.6
78463;SHT31;67756;51.982;5.648;2024-01-10T08:17:06;0.5;44.6
78463;SHT31;67756;51.982;5.648;2024-01-10T08:19:34;0.5;44.0
78463;SHT31;67756;51.982;5.648;2024-01-10T08:22:04;0.5;43.9
78463;SHT31;67756;51.982;5.648;2024-01-10T08:24:36;0.5;43.9
78463;SHT31;67756;51.982;5.648;2024-01-10T08:27:05;0.5;44.3
78463;SHT31;67756;51.982;5.648;2024-01-10T08:29:34;0.5;44.5
78463;SHT31;67756;51.982;5.648;2024-01-10T08:32:03;0.5;44.0
78463;SHT31;67756;51.982;5.648;2024-01-10T08:34:32;0.4;44.0
78463;SHT31;67756;51.982;5.648;2024-01-10T08:37:01;0.4;43.7
78463;SHT31;67756;51.982;5.648;2024-01-10T08:39:29;0.4;43.5
78463;SHT31;67756;51.982;5.648;2024-01-10T08:41:59;0.4;43.6
78463;SHT31;67756;51.982;5.648;2024-01-10T08:44:27;0.4;44.1
78463;SHT31;67756;51.982;5.648;2024-01-10T08:46:56;0.4;44.2
78463;SHT31;67756;51.982;5.648;2024-01-10T08:49:25;0.4;43.6
78463;SHT31;67756;51.982;5.648;2024-01-10T08:51:54;0.4;44.0
78463;SHT31;67756;51.982;5.648;2024-01-10T08:54:24;0.4;43.8
78463;SHT31;67756;51.982;5.648;2024-01-10T08:56:53;0.5;44.0
78463;SHT31;67756;51.982;5.648;2024-01-10T08:59:26;0.6;43.4
78463;SHT31;67756;51.982;5.648;2024-01-10T09:01:55;0.7;42.8
78463;SHT31;67756;51.982;5.648;2024-01-10T09:04:24;0.7;43.3
78463;SHT31;67756;51.982;5.648;2024-01-10T09:06:53;0.7;42.9
78463;SHT31;67756;51.982;5.648;2024-01-10T09:09:21;0.8;42.3
78463;SHT31;67756;51.982;5.648;2024-01-10T09:11:52;0.8;42.0
78463;SHT31;67756;51.982;5.648;2024-01-10T09:14:23;0.8;42.4
78463;SHT31;67756;51.982;5.648;2024-01-10T09:16:51;0.8;42.1
78463;SHT31;67756;51.982;5.648;2024-01-10T09:19:22;0.9;41.4
78463;SHT31;67756;51.982;5.648;2024-01-10T09:21:51;0.9;41.8
78463;SHT31;67756;51.982;5.648;2024-01-10T09:24:19;0.9;42.8
78463;SHT31;67756;51.982;5.648;2024-01-10T09:26:48;0.9;41.9
78463;SHT31;67756;51.982;5.648;2024-01-10T09:29:17;1.0;42.4
78463;SHT31;67756;51.982;5.648;2024-01-10T09:31:45;1.0;41.5
78463;SHT31;67756;51.982;5.648;2024-01-10T09:34:14;1.1;41.4
78463;SHT31;67756;51.982;5.648;2024-01-10T09:36:45;1.1;41.3
78463;SHT31;67756;51.982;5.648;2024-01-10T09:39:14;1.2;40.4
78463;SHT31;67756;51.982;5.648;2024-01-10T09:41:55;1.2;40.5
78463;SHT31;67756;51.982;5.648;2024-01-10T09:44:24;1.3;40.0
78463;SHT31;67756;51.982;5.648;2024-01-10T09:46:54;1.4;39.9
78463;SHT31;67756;51.982;5.648;2024-01-10T09:49:23;1.5;39.5
78463;SHT31;67756;51.982;5.648;2024-01-10T09:51:59;1.5;39.6
78463;SHT31;67756;51.982;5.648;2024-01-10T09:54:35;1.6;39.1
78463;SHT31;67756;51.982;5.648;2024-01-10T09:57:07;1.6;39.3
78463;SHT31;67756;51.982;5.648;2024-01-10T09:59:36;1.7;39.5
78463;SHT31;67756;51.982;5.648;2024-01-10T10:02:05;1.7;39.0
78463;SHT31;67756;51.982;5.648;2024-01-10T10:04:37;1.8;38.6
78463;SHT31;67756;51.982;5.648;2024-01-10T10:07:07;1.9;37.8
78463;SHT31;67756;51.982;5.648;2024-01-10T10:09:37;2.0;38.3
78463;SHT31;67756;51.982;5.648;2024-01-10T10:12:08;2.1;38.2
78463;SHT31;67756;51.982;5.648;2024-01-10T10:14:36;2.3;37.7
78463;SHT31;67756;51.982;5.648;2024-01-10T10:17:18;2.5;37.3
78463;SHT31;67756;51.982;5.648;2024-01-10T10:19:47;2.8;37.0
78463;SHT31;67756;51.982;5.648;2024-01-10T10:22:17;3.1;36.4
78463;SHT31;67756;51.982;5.648;2024-01-10T10:24:50;3.5;36.4
78463;SHT31;67756;51.982;5.648;2024-01-10T10:27:22;3.9;34.5
78463;SHT31;67756;51.982;5.648;2024-01-10T10:29:52;4.2;34.3
78463;SHT31;67756;51.982;5.648;2024-01-10T10:32:22;4.5;33.2
78463;SHT31;67756;51.982;5.648;2024-01-10T10:34:51;4.7;33.1
78463;SHT31;67756;51.982;5.648;2024-01-10T10:37:19;4.9;32.0
78463;SHT31;67756;51.982;5.648;2024-01-10T10:39:51;5.1;31.7
78463;SHT31;67756;51.982;5.648;2024-01-10T10:42:20;5.3;31.8
78463;SHT31;67756;51.982;5.648;2024-01-10T10:44:51;5.4;31.3
78463;SHT31;67756;51.982;5.648;2024-01-10T10:47:25;5.6;31.5
78463;SHT31;67756;51.982;5.648;2024-01-10T10:49:57;5.7;30.4
78463;SHT31;67756;51.982;5.648;2024-01-10T10:52:29;5.8;30.1
78463;SHT31;67756;51.982;5.648;2024-01-10T10:55:00;5.8;29.9
78463;SHT31;67756;51.982;5.648;2024-01-10T10:57:31;5.8;30.4
78463;SHT31;67756;51.982;5.648;2024-01-10T11:00:01;5.8;30.5
78463;SHT31;67756;51.982;5.648;2024-01-10T11:02:30;5.9;30.0
78463;SHT31;67756;51.982;5.648;2024-01-10T11:05:00;6.1;29.9
78463;SHT31;67756;51.982;5.648;2024-01-10T11:07:30;6.3;29.1
78463;SHT31;67756;51.982;5.648;2024-01-10T11:10:00;6.5;28.6
78463;SHT31;67756;51.982;5.648;2024-01-10T11:12:44;6.8;29.3
78463;SHT31;67756;51.982;5.648;2024-01-10T11:15:40;7.0;27.9
78463;SHT31;67756;51.982;5.648;2024-01-10T11:18:18;7.2;28.2
78463;SHT31;67756;51.982;5.648;2024-01-10T11:20:59;7.3;27.7
78463;SHT31;67756;51.982;5.648;2024-01-10T11:23:42;7.4;27.5
78463;SHT31;67756;51.982;5.648;2024-01-10T11:26:15;7.5;27.3
78463;SHT31;67756;51.982;5.648;2024-01-10T11:28:46;7.7;28.2
78463;SHT31;67756;51.982;5.648;2024-01-10T11:31:15;7.8;27.2
78463;SHT31;67756;51.982;5.648;2024-01-10T11:33:44;7.9;27.1
78463;SHT31;67756;51.982;5.648;2024-01-10T11:36:17;8.0;27.1
78463;SHT31;67756;51.982;5.648;2024-01-10T11:38:54;8.1;26.3
78463;SHT31;67756;51.982;5.648;2024-01-10T11:41:26;8.2;27.2
78463;SHT31;67756;51.982;5.648;2024-01-10T11:48:33;9.0;26.3
78463;SHT31;67756;51.982;5.648;2024-01-10T11:51:05;9.3;26.0
78463;SHT31;67756;51.982;5.648;2024-01-10T11:53:41;9.6;24.7
78463;SHT31;67756;51.982;5.648;2024-01-10T11:56:14;9.8;24.5
78463;SHT31;67756;51.982;5.648;2024-01-10T11:58:54;9.9;23.5
78463;SHT31;67756;51.982;5.648;2024-01-10T12:01:23;10.1;23.7
78463;SHT31;67756;51.982;5.648;2024-01-10T12:03:55;10.2;23.5
78463;SHT31;67756;51.982;5.648;2024-01-10T12:06:24;10.3;23.0
78463;SHT31;67756;51.982;5.648;2024-01-10T12:08:53;10.4;23.8
78463;SHT31;67756;51.982;5.648;2024-01-10T12:11:22;10.5;23.8
78463;SHT31;67756;51.982;5.648;2024-01-10T12:13:51;10.6;23.8
78463;SHT31;67756;51.982;5.648;2024-01-10T12:16:23;10.7;23.8
78463;SHT31;67756;51.982;5.648;2024-01-10T12:18:54;10.8;23.2
78463;SHT31;67756;51.982;5.648;2024-01-10T12:21:22;10.9;23.7
78463;SHT31;67756;51.982;5.648;2024-01-10T12:23:51;11.0;22.8
78463;SHT31;67756;51.982;5.648;2024-01-10T12:26:20;11.1;22.5
78463;SHT31;67756;51.982;5.648;2024-01-10T12:28:58;11.2;22.8
78463;SHT31;67756;51.982;5.648;2024-01-10T12:31:32;11.4;22.8
78463;SHT31;67756;51.982;5.648;2024-01-10T12:34:02;11.5;23.0
78463;SHT31;67756;51.982;5.648;2024-01-10T12:36:33;11.6;23.0
78463;SHT31;67756;51.982;5.648;2024-01-10T12:39:02;11.6;23.1
78463;SHT31;67756;51.982;5.648;2024-01-10T12:41:34;11.6;22.2
78463;SHT31;67756;51.982;5.648;2024-01-10T12:44:04;11.5;22.3
78463;SHT31;67756;51.982;5.648;2024-01-10T12:46:33;11.3;22.5
78463;SHT31;67756;51.982;5.648;2024-01-10T12:49:03;11.1;22.9
78463;SHT31;67756;51.982;5.648;2024-01-10T12:51:34;10.9;23.3
78463;SHT31;67756;51.982;5.648;2024-01-10T12:54:03;10.6;23.0
78463;SHT31;67756;51.982;5.648;2024-01-10T12:56:33;10.4;23.1
78463;SHT31;67756;51.982;5.648;2024-01-10T12:59:01;10.3;24.4
78463;SHT31;67756;51.982;5.648;2024-01-10T13:01:30;10.1;23.6
78463;SHT31;67756;51.982;5.648;2024-01-10T13:04:01;10.0;24.6
78463;SHT31;67756;51.982;5.648;2024-01-10T13:06:30;9.9;24.6
78463;SHT31;67756;51.982;5.648;2024-01-10T13:08:58;9.8;25.2
78463;SHT31;67756;51.982;5.648;2024-01-10T13:11:27;9.7;25.8
78463;SHT31;67756;51.982;5.648;2024-01-10T13:13:56;9.6;24.7
78463;SHT31;67756;51.982;5.648;2024-01-10T13:16:24;9.5;24.6
78463;SHT31;67756;51.982;5.648;2024-01-10T13:18:53;9.1;25.4
78463;SHT31;67756;51.982;5.648;2024-01-10T13:21:24;8.6;25.5
78463;SHT31;67756;51.982;5.648;2024-01-10T13:23:52;8.0;26.3
78463;SHT31;67756;51.982;5.648;2024-01-10T13:26:21;7.4;27.4
78463;SHT31;67756;51.982;5.648;2024-01-10T13:28:50;6.9;28.1
78463;SHT31;67756;51.982;5.648;2024-01-10T13:31:21;6.5;28.9
78463;SHT31;67756;51.982;5.648;2024-01-10T13:33:49;6.2;29.3
78463;SHT31;67756;51.982;5.648;2024-01-10T13:36:18;5.9;29.9
78463;SHT31;67756;51.982;5.648;2024-01-10T13:38:47;5.7;29.7
78463;SHT31;67756;51.982;5.648;2024-01-10T13:41:15;5.5;30.8
78463;SHT31;67756;51.982;5.648;2024-01-10T13:43:44;5.3;30.9
78463;SHT31;67756;51.982;5.648;2024-01-10T13:46:13;5.1;31.2
78463;SHT31;67756;51.982;5.648;2024-01-10T13:48:41;5.0;32.2
78463;SHT31;67756;51.982;5.648;2024-01-10T13:51:10;4.9;32.1
78463;SHT31;67756;51.982;5.648;2024-01-10T13:53:40;4.8;32.5
78463;SHT31;67756;51.982;5.648;2024-01-10T13:56:09;4.7;33.1
78463;SHT31;67756;51.982;5.648;2024-01-10T13:58:38;4.6;32.8
78463;SHT31;67756;51.982;5.648;2024-01-10T14:01:07;4.5;33.2
78463;SHT31;67756;51.982;5.648;2024-01-10T14:03:35;4.5;33.8
78463;SHT31;67756;51.982;5.648;2024-01-10T14:06:05;4.4;34.0
78463;SHT31;67756;51.982;5.648;2024-01-10T14:08:34;4.4;32.9
78463;SHT31;67756;51.982;5.648;2024-01-10T14:11:04;4.3;33.2
78463;SHT31;67756;51.982;5.648;2024-01-10T14:13:32;4.3;32.7
78463;SHT31;67756;51.982;5.648;2024-01-10T14:16:01;4.2;33.7
78463;SHT31;67756;51.982;5.648;2024-01-10T14:18:30;4.1;33.8
78463;SHT31;67756;51.982;5.648;2024-01-10T14:21:01;4.1;33.5
78463;SHT31;67756;51.982;5.648;2024-01-10T14:23:31;4.0;34.4
78463;SHT31;67756;51.982;5.648;2024-01-10T14:26:00;4.0;34.7
78463;SHT31;67756;51.982;5.648;2024-01-10T14:28:31;3.9;34.2
78463;SHT31;67756;51.982;5.648;2024-01-10T14:31:01;3.9;34.9
78463;SHT31;67756;51.982;5.648;2024-01-10T14:33:30;3.9;35.3
78463;SHT31;67756;51.982;5.648;2024-01-10T14:36:01;3.9;34.8
78463;SHT31;67756;51.982;5.648;2024-01-10T14:38:33;3.9;35.4
78463;SHT31;67756;51.982;5.648;2024-01-10T14:41:01;4.0;35.3
78463;SHT31;67756;51.982;5.648;2024-01-10T14:43:30;4.0;35.0
78463;SHT31;67756;51.982;5.648;2024-01-10T14:45:59;4.1;35.4
78463;SHT31;67756;51.982;5.648;2024-01-10T14:48:28;4.1;35.7
78463;SHT31;67756;51.982;5.648;2024-01-10T14:50:57;4.0;35.0
78463;SHT31;67756;51.982;5.648;2024-01-10T14:53:27;4.1;34.9
78463;SHT31;67756;51.982;5.648;2024-01-10T14:55:57;4.1;34.7
78463;SHT31;67756;51.982;5.648;2024-01-10T14:58:25;4.1;34.9
78463;SHT31;67756;51.982;5.648;2024-01-10T15:00:54;4.1;34.7
78463;SHT31;67756;51.982;5.648;2024-01-10T15:03:23;4.1;34.4
78463;SHT31;67756;51.982;5.648;2024-01-10T15:05:52;4.0;34.6
78463;SHT31;67756;51.982;5.648;2024-01-10T15:08:21;3.9;35.5
78463;SHT31;67756;51.982;5.648;2024-01-10T15:10:49;3.8;36.1
78463;SHT31;67756;51.982;5.648;2024-01-10T15:13:18;3.8;36.7
78463;SHT31;67756;51.982;5.648;2024-01-10T15:15:47;3.7;36.5
78463;SHT31;67756;51.982;5.648;2024-01-10T15:18:16;3.7;36.3
78463;SHT31;67756;51.982;5.648;2024-01-10T15:20:47;3.6;36.8
78463;SHT31;67756;51.982;5.648;2024-01-10T15:23:16;3.6;36.2
78463;SHT31;67756;51.982;5.648;2024-01-10T15:25:45;3.6;37.5
78463;SHT31;67756;51.982;5.648;2024-01-10T15:28:14;3.6;36.5
78463;SHT31;67756;51.982;5.648;2024-01-10T15:30:42;3.7;35.9
78463;SHT31;67756;51.982;5.648;2024-01-10T15:33:11;3.7;36.3
78463;SHT31;67756;51.982;5.648;2024-01-10T15:35:40;3.8;36.9
78463;SHT31;67756;51.982;5.648;2024-01-10T15:38:08;3.8;37.5
78463;SHT31;67756;51.982;5.648;2024-01-10T15:40:37;3.9;35.8
78463;SHT31;67756;51.982;5.648;2024-01-10T15:43:07;3.9;35.6
78463;SHT31;67756;51.982;5.648;2024-01-10T15:45:35;3.8;36.4
78463;SHT31;67756;51.982;5.648;2024-01-10T15:48:04;3.8;36.1
78463;SHT31;67756;51.982;5.648;2024-01-10T15:50:34;3.7;37.0
78463;SHT31;67756;51.982;5.648;2024-01-10T15:53:02;3.7;36.3
78463;SHT31;67756;51.982;5.648;2024-01-10T15:55:31;3.6;37.0
78463;SHT31;67756;51.982;5.648;2024-01-10T15:58:04;3.6;36.3
78463;SHT31;67756;51.982;5.648;2024-01-10T16:00:33;3.5;37.2
78463;SHT31;67756;51.982;5.648;2024-01-10T16:03:02;3.5;37.7
78463;SHT31;67756;51.982;5.648;2024-01-10T16:05:33;3.5;37.6
78463;SHT31;67756;51.982;5.648;2024-01-10T16:08:05;3.5;37.3
78463;SHT31;67756;51.982;5.648;2024-01-10T16:10:34;3.5;37.2
78463;SHT31;67756;51.982;5.648;2024-01-10T16:13:03;3.5;37.2
78463;SHT31;67756;51.982;5.648;2024-01-10T16:15:35;3.5;37.5
78463;SHT31;67756;51.982;5.648;2024-01-10T16:18:05;3.5;37.8
78463;SHT31;67756;51.982;5.648;2024-01-10T16:20:34;3.5;40.2
78463;SHT31;67756;51.982;5.648;2024-01-10T16:23:04;3.5;39.7
78463;SHT31;67756;51.982;5.648;2024-01-10T16:25:34;3.5;38.5
78463;SHT31;67756;51.982;5.648;2024-01-10T16:28:04;3.4;38.5
78463;SHT31;67756;51.982;5.648;2024-01-10T16:30:33;3.4;40.2
78463;SHT31;67756;51.982;5.648;2024-01-10T16:33:03;3.4;39.8
78463;SHT31;67756;51.982;5.648;2024-01-10T16:35:33;3.4;40.1
78463;SHT31;67756;51.982;5.648;2024-01-10T16:38:02;3.4;39.3